Flight Track Log - Related Links

Times and Time Zones

All times are in EDT time to prevent confusion due to time zone crossing. See the PDT4362 flight status page for this flight to view local times or setup timezone preferences in your user account.

Time Position Orientation Groundspeed Altitude Reporting Facility
EDT Latitude Longitude Course Direction KTS MPH feet Rate Location/Type
Wed 07:26:15 PM 35.2170 -80.9716 183° South  Level FlightAware Approximate
Wed 07:27:15 PM 35.2302 -81.0616 131° Southeast  Level FlightAware Approximate
Wed 07:28:28 PM 35.1689 -80.9747 268° West 177 204 2,500  Level Atlanta Center
Wed 07:29:34 PM 35.1664 -81.0458 272° West 178 205 3,600 1,041 Climbing Atlanta Center
Wed 07:30:29 PM 35.1678 -81.0967 276° West 175 201 4,600 776 Climbing Atlanta Center
Wed 07:31:30 PM 35.1733 -81.1575 310° West 183 211 5,100 246 Climbing Atlanta Center
Wed 07:32:31 PM 35.2100 -81.2119 298° West 214 246 5,100  Level Atlanta Center
Wed 07:33:38 PM 35.2431 -81.2872 281° West 222 255 5,100  Level Atlanta Center
Wed 07:34:39 PM 35.2550 -81.3606 283° West 222 255 5,100  Level Atlanta Center
Wed 07:35:39 PM 35.2692 -81.4364 279° West 225 259 5,100 347 Level Atlanta Center
Wed 07:36:40 PM 35.2792 -81.5100 280° West 223 257 5,800 793 Climbing Atlanta Center
Wed 07:37:40 PM 35.2886 -81.5731 274° West 215 247 6,700 850 Climbing Atlanta Center
Wed 07:38:40 PM 35.2917 -81.6214 282° West 186 214 7,500 590 Climbing Atlanta Center
Wed 07:39:42 PM 35.3011 -81.6747 277° West 162 186 7,900 182 Climbing Atlanta Center
Wed 07:40:52 PM 35.3089 -81.7481 284° West 168 193 7,900  Level Atlanta Center
Wed 07:41:52 PM 35.3225 -81.8139 282° West 191 220 7,900  Level Atlanta Center
Wed 07:42:52 PM 35.3342 -81.8825 284° West 201 231 7,900 50 Level Atlanta Center
Wed 07:43:52 PM 35.3478 -81.9483 282° West 201 231 8,000 50 Climbing Atlanta Center
Wed 07:44:52 PM 35.3594 -82.0142 283° West 201 231 8,000  Level Atlanta Center
Wed 07:45:52 PM 35.3731 -82.0853 280° West 201 231 8,000  Level Atlanta Center
Wed 07:46:52 PM 35.3825 -82.1486 303° West 195 224 8,000 -400 Level Atlanta Center
Wed 07:47:52 PM 35.4103 -82.2014 295° West 190 219 7,200 -950 Descending Atlanta Center
Wed 07:48:52 PM 35.4319 -82.2572 287° West 183 211 6,100 -600 Descending Atlanta Center
Wed 07:49:52 PM 35.4453 -82.3103 276° West 173 199 6,000 -50 Descending Atlanta Center
Wed 07:50:52 PM 35.4503 -82.3714 289° West 173 199 6,000  Level Atlanta Center
Wed 07:51:52 PM 35.4656 -82.4247 289° West 178 205 6,000  Level Atlanta Center

Login

Don't have an account? Register now (free) for customized features, flight alerts, and more!